Time;durP1;ratioP1;P1;durP2;ratioP2;P2;SDS_P1;SDS_P2;PMS_P1;PMS_P2;Temp;Humidity;BMP_temperature;BMP_pressure;BME280_temperature;BME280_humidity;BME280_pressure;Samples;Min_cycle;Max_cycle;Signal;HPM_P1;HPM_P2
2023/03/02 00:01:48;;;;;;;51.90;3.95;;;14.10;57.10;;;;;;5052677;28;20231;-65
2023/03/02 00:04:30;;;;;;;29.30;1.98;;;14.00;57.10;;;;;;5059576;28;20521;-60
2023/03/02 00:07:00;;;;;;;12.77;2.17;;;13.80;57.00;;;;;;5054059;28;20077;-62
2023/03/02 00:09:27;;;;;;;14.30;1.25;;;13.30;58.10;;;;;;5056409;28;20080;-66
2023/03/02 00:11:54;;;;;;;12.65;1.30;;;13.40;58.30;;;;;;5059894;28;20068;-64
2023/03/02 00:14:21;;;;;;;4.90;1.00;;;13.60;57.30;;;;;;5060262;28;20445;-66
2023/03/02 00:16:47;;;;;;;;;;;13.30;57.30;;;;;;5060601;28;20076;-67
2023/03/02 00:19:13;;;;;;;9.48;1.23;;;13.40;57.20;;;;;;5058990;28;20047;-59
2023/03/02 00:21:40;;;;;;;;;;;13.40;55.90;;;;;;5051888;28;20096;-65
2023/03/02 00:24:06;;;;;;;16.27;1.85;;;13.40;56.30;;;;;;5053736;28;20008;-65
2023/03/02 00:26:34;;;;;;;7.53;1.15;;;13.50;55.90;;;;;;5058363;28;20077;-62
2023/03/02 00:29:00;;;;;;;13.70;2.10;;;13.30;54.90;;;;;;5058041;28;20080;-64
2023/03/02 00:31:27;;;;;;;12.02;1.20;;;13.20;54.50;;;;;;5055968;28;20100;-62
2023/03/02 00:33:55;;;;;;;;;;;13.20;54.30;;;;;;5059534;28;20065;-63
2023/03/02 00:36:23;;;;;;;17.73;1.38;;;13.20;53.80;;;;;;5052808;28;19960;-66
2023/03/02 00:38:53;;;;;;;7.82;1.52;;;13.00;52.30;;;;;;5053643;28;20073;-64
2023/03/02 00:41:20;;;;;;;10.50;1.40;;;13.00;50.50;;;;;;5060186;28;20089;-65
2023/03/02 00:43:47;;;;;;;9.07;0.90;;;12.90;49.40;;;;;;5058987;28;20069;-66
2023/03/02 00:46:22;;;;;;;9.45;1.35;;;12.90;49.70;;;;;;5063645;28;20134;-64
2023/03/02 00:48:50;;;;;;;9.93;1.35;;;12.80;50.00;;;;;;5059919;28;20238;-63
2023/03/02 00:51:17;;;;;;;22.42;1.67;;;13.00;49.90;;;;;;5058191;28;20092;-64
2023/03/02 00:53:44;;;;;;;17.75;1.60;;;12.90;49.90;;;;;;5056254;28;20119;-63
2023/03/02 00:56:10;;;;;;;;;;;12.80;50.40;;;;;;5066705;28;20083;-63
2023/03/02 00:58:37;;;;;;;26.67;2.38;;;12.70;51.40;;;;;;5068495;28;20434;-62
2023/03/02 01:01:09;;;;;;;16.02;2.40;;;12.30;52.60;;;;;;5057164;28;20077;-66
2023/03/02 01:03:37;;;;;;;30.38;1.77;;;12.50;53.70;;;;;;5059010;28;20111;-65
2023/03/02 01:06:04;;;;;;;18.63;2.40;;;12.40;54.00;;;;;;5060125;28;20077;-67
2023/03/02 01:08:31;;;;;;;19.60;1.98;;;12.40;54.30;;;;;;5066486;28;20088;-67
2023/03/02 01:11:00;;;;;;;11.75;1.83;;;12.30;54.70;;;;;;5059424;28;20207;-64
2023/03/02 01:13:27;;;;;;;7.05;1.70;;;12.30;55.50;;;;;;5061153;28;20096;-60
2023/03/02 01:16:03;;;;;;;18.92;2.25;;;12.20;55.40;;;;;;5057742;28;20071;-66
2023/03/02 01:18:31;;;;;;;20.35;1.95;;;12.10;54.70;;;;;;5061364;28;20104;-68
2023/03/02 01:21:07;;;;;;;13.82;2.00;;;12.00;54.50;;;;;;5060561;28;20139;-63
2023/03/02 01:23:33;;;;;;;10.20;2.53;;;11.90;55.10;;;;;;5059834;28;20073;-62
2023/03/02 01:26:00;;;;;;;17.23;2.38;;;11.80;55.50;;;;;;5067197;28;20069;-61
2023/03/02 01:28:26;;;;;;;;;;;11.80;55.70;;;;;;5055262;28;20296;-58
2023/03/02 01:30:53;;;;;;;13.55;2.58;;;11.80;55.90;;;;;;5060053;28;19964;-60
2023/03/02 01:33:20;;;;;;;10.00;1.70;;;11.80;56.10;;;;;;5061213;28;20089;-61
2023/03/02 01:35:47;;;;;;;9.73;2.20;;;11.70;56.20;;;;;;5038969;28;20075;-62
2023/03/02 01:38:14;;;;;;;10.35;1.90;;;11.80;56.50;;;;;;5058547;28;20522;-62
2023/03/02 01:40:40;;;;;;;12.38;1.60;;;11.70;56.40;;;;;;5055846;28;20077;-62
2023/03/02 01:43:12;;;;;;;15.05;2.33;;;11.70;56.40;;;;;;5056161;28;20106;-60
2023/03/02 01:46:27;;;;;;;10.95;1.77;;;11.70;56.50;;;;;;5058440;28;20104;-61
2023/03/02 01:49:01;;;;;;;13.55;2.53;;;11.60;56.90;;;;;;4981450;28;20545;-62
2023/03/02 01:51:32;;;;;;;22.95;2.78;;;11.70;56.60;;;;;;4982980;28;20106;-62
2023/03/02 01:54:09;;;;;;;58.53;3.92;;;11.60;54.40;;;;;;4975306;28;20541;-63
2023/03/02 01:56:40;;;;;;;73.65;5.65;;;11.20;60.70;;;;;;4974492;28;20226;-61
2023/03/02 01:59:10;;;;;;;144.60;8.70;;;10.40;74.10;;;;;;4977060;28;20097;-64
2023/03/02 02:01:41;;;;;;;95.85;6.05;;;9.80;77.10;;;;;;4972425;28;20098;-63
2023/03/02 02:04:08;;;;;;;68.22;5.38;;;9.50;77.10;;;;;;4973453;28;20079;-62
2023/03/02 02:06:39;;;;;;;38.83;2.97;;;9.30;77.60;;;;;;4973565;28;20144;-63
2023/03/02 02:09:09;;;;;;;25.48;2.90;;;9.20;77.10;;;;;;4975495;28;20126;-65
2023/03/02 02:11:36;;;;;;;14.77;1.67;;;9.10;76.70;;;;;;4975826;28;20095;-61
2023/03/02 02:14:03;;;;;;;13.10;1.65;;;9.10;76.80;;;;;;4979495;28;20091;-63
2023/03/02 02:16:32;;;;;;;14.00;1.50;;;9.20;76.40;;;;;;4974638;28;20527;-61
2023/03/02 02:19:00;;;;;;;10.18;1.60;;;9.20;75.50;;;;;;4974509;28;20166;-64
2023/03/02 02:21:27;;;;;;;8.00;1.20;;;9.20;76.00;;;;;;4974645;28;20091;-63
2023/03/02 02:24:23;;;;;;;7.35;1.30;;;9.20;75.10;;;;;;4994012;28;20186;-64
2023/03/02 02:26:53;;;;;;;7.93;1.50;;;9.10;75.60;;;;;;5028028;28;20082;-64
2023/03/02 02:29:45;;;;;;;7.15;1.77;;;9.00;76.30;;;;;;5034260;28;20066;-60
2023/03/02 02:32:22;;;;;;;7.22;1.45;;;9.00;75.10;;;;;;5035415;28;20066;-62
2023/03/02 02:35:01;;;;;;;12.93;1.63;;;9.00;74.60;;;;;;5032935;28;20165;-61
2023/03/02 02:37:39;;;;;;;9.30;2.10;;;9.10;74.30;;;;;;5046603;28;20073;-67
2023/03/02 02:40:11;;;;;;;10.05;1.65;;;9.10;73.40;;;;;;5039346;28;20085;-64
2023/03/02 02:42:42;;;;;;;9.77;1.48;;;9.20;72.50;;;;;;5039247;28;20100;-65
2023/03/02 02:45:21;;;;;;;8.75;1.10;;;9.20;71.40;;;;;;5034279;28;20165;-66
2023/03/02 02:47:49;;;;;;;7.15;1.63;;;9.30;71.80;;;;;;5034897;28;20430;-65
2023/03/02 02:50:28;;;;;;;4.68;1.08;;;9.30;71.30;;;;;;5035216;28;20436;-66
2023/03/02 02:53:05;;;;;;;7.75;1.38;;;9.30;70.30;;;;;;5035616;28;20074;-61
2023/03/02 02:55:34;;;;;;;10.45;1.00;;;9.30;70.60;;;;;;5033060;28;20081;-67
2023/03/02 02:58:08;;;;;;;6.93;1.38;;;9.40;70.40;;;;;;5034237;28;21671;-61
2023/03/02 03:00:36;;;;;;;6.63;1.90;;;9.20;70.00;;;;;;5035613;28;20132;-62
2023/03/02 03:03:27;;;;;;;11.73;1.58;;;9.30;68.80;;;;;;5032709;28;20248;-66
2023/03/02 03:05:54;;;;;;;6.00;1.00;;;9.40;67.50;;;;;;5040430;28;20478;-61
2023/03/02 03:08:42;;;;;;;5.55;0.80;;;9.40;63.70;;;;;;5037917;28;20104;-62
2023/03/02 03:11:18;;;;;;;7.22;1.13;;;9.60;62.20;;;;;;5036589;28;20089;-62
2023/03/02 03:13:45;;;;;;;4.50;1.05;;;9.70;61.10;;;;;;5032733;28;20066;-65
2023/03/02 03:16:15;;;;;;;4.57;1.00;;;9.70;61.00;;;;;;5036327;28;20089;-60
2023/03/02 03:18:50;;;;;;;3.22;0.82;;;9.70;60.30;;;;;;5038647;28;20562;-63
2023/03/02 03:21:17;;;;;;;1.85;0.85;;;9.70;60.10;;;;;;5037475;28;20489;-62
2023/03/02 03:23:44;;;;;;;5.38;1.25;;;9.70;60.00;;;;;;5041425;28;20430;-61
2023/03/02 03:26:10;;;;;;;4.22;1.13;;;9.80;60.00;;;;;;5033031;28;20155;-64
2023/03/02 03:28:37;;;;;;;3.50;1.10;;;9.70;59.80;;;;;;5044271;28;20427;-64
2023/03/02 03:31:03;;;;;;;;;;;9.70;59.50;;;;;;5035307;28;20085;-65
2023/03/02 03:33:30;;;;;;;7.20;1.40;;;9.70;59.10;;;;;;5035915;28;20449;-62
2023/03/02 03:35:56;;;;;;;;;;;9.80;59.10;;;;;;5042675;28;20214;-64
2023/03/02 03:38:22;;;;;;;4.95;1.42;;;9.80;58.90;;;;;;5036675;28;19992;-64
2023/03/02 03:40:49;;;;;;;2.08;1.10;;;9.70;59.20;;;;;;5035176;28;20088;-60
2023/03/02 03:43:15;;;;;;;;;;;9.80;58.70;;;;;;5035769;28;20086;-62
2023/03/02 03:45:41;;;;;;;7.40;2.03;;;9.80;58.50;;;;;;5033995;28;19957;-62
2023/03/02 03:48:08;;;;;;;;;;;9.80;58.30;;;;;;5035159;28;20074;-61
2023/03/02 03:50:35;;;;;;;4.05;1.80;;;9.70;58.50;;;;;;5032876;28;19964;-66
2023/03/02 03:53:01;;;;;;;2.05;1.05;;;9.70;58.70;;;;;;5033695;28;20081;-59
2023/03/02 03:55:29;;;;;;;6.10;1.40;;;9.70;58.90;;;;;;5034196;28;20442;-63
2023/03/02 03:57:55;;;;;;;2.88;1.20;;;9.70;58.70;;;;;;5037900;28;20094;-62
2023/03/02 04:00:23;;;;;;;3.35;0.98;;;9.70;59.00;;;;;;5040458;28;20078;-61
2023/03/02 04:02:49;;;;;;;6.65;2.17;;;9.70;59.00;;;;;;5044854;28;20174;-65
2023/03/02 04:05:16;;;;;;;3.65;1.60;;;9.70;58.70;;;;;;5059284;28;20089;-61
2023/03/02 04:07:43;;;;;;;5.80;1.25;;;9.70;58.60;;;;;;5014523;28;20572;-62
2023/03/02 04:10:09;;;;;;;;;;;9.70;58.70;;;;;;5059327;28;20155;-63
2023/03/02 04:12:37;;;;;;;5.28;1.42;;;9.70;58.40;;;;;;5056256;28;20003;-61
2023/03/02 04:15:07;;;;;;;2.65;1.08;;;9.60;58.70;;;;;;5059915;28;20512;-60
2023/03/02 04:17:34;;;;;;;3.53;1.30;;;9.60;58.50;;;;;;5062555;28;20081;-65
2023/03/02 04:20:00;;;;;;;2.50;1.13;;;9.50;58.50;;;;;;5061205;28;20097;-61
2023/03/02 04:22:27;;;;;;;4.25;1.65;;;9.60;58.90;;;;;;5058144;28;20184;-65
2023/03/02 04:24:53;;;;;;;7.43;1.55;;;9.60;58.20;;;;;;5055224;28;20607;-63
2023/03/02 04:27:19;;;;;;;;;;;9.70;58.80;;;;;;5064888;28;20080;-67
2023/03/02 04:29:46;;;;;;;5.15;1.70;;;9.60;58.50;;;;;;5061569;28;19995;-63
2023/03/02 04:32:13;;;;;;;23.92;2.05;;;9.60;58.90;;;;;;5057752;28;20161;-66
2023/03/02 04:34:40;;;;;;;5.35;1.00;;;9.60;58.90;;;;;;5058117;28;20110;-63
2023/03/02 04:37:06;;;;;;;2.80;0.98;;;9.70;59.10;;;;;;5059711;28;20411;-66
2023/03/02 04:39:33;;;;;;;;;;;9.60;59.10;;;;;;5057516;28;20067;-64
2023/03/02 04:41:59;;;;;;;9.63;0.98;;;9.60;59.40;;;;;;5059331;28;19973;-63
2023/03/02 04:44:25;;;;;;;;;;;9.60;59.70;;;;;;5061773;28;20084;-64
2023/03/02 04:46:51;;;;;;;4.45;1.80;;;9.60;59.80;;;;;;5064772;28;19957;-65
2023/03/02 04:49:18;;;;;;;;;;;9.70;60.10;;;;;;5065457;28;21432;-64
2023/03/02 04:51:46;;;;;;;11.52;1.80;;;9.70;60.30;;;;;;5063994;28;19960;-64
2023/03/02 04:54:25;;;;;;;4.90;1.60;;;9.70;60.10;;;;;;5060294;28;20126;-63
2023/03/02 04:56:51;;;;;;;5.63;1.58;;;9.60;60.30;;;;;;5057523;28;20072;-63
2023/03/02 04:59:22;;;;;;;11.52;3.03;;;9.70;60.60;;;;;;5060516;28;20078;-62
2023/03/02 05:01:49;;;;;;;19.58;7.47;;;9.70;60.60;;;;;;5064068;28;20117;-65
2023/03/02 05:04:16;;;;;;;5.10;2.42;;;9.70;60.60;;;;;;5066165;28;20179;-63
2023/03/02 05:06:42;;;;;;;8.25;1.75;;;9.70;60.70;;;;;;5062530;28;20074;-60
2023/03/02 05:09:09;;;;;;;5.72;1.80;;;9.70;60.50;;;;;;5054901;28;20093;-63
2023/03/02 05:11:35;;;;;;;4.95;1.30;;;9.70;60.40;;;;;;5056361;28;20095;-60
2023/03/02 05:14:05;;;;;;;10.52;1.88;;;9.80;60.20;;;;;;5057905;28;20073;-64
2023/03/02 05:16:34;;;;;;;6.18;1.50;;;9.80;60.00;;;;;;5053956;28;20085;-63
2023/03/02 05:19:05;;;;;;;6.70;1.48;;;9.80;59.80;;;;;;5061070;28;20093;-63
2023/03/02 05:21:31;;;;;;;6.20;1.27;;;9.80;59.80;;;;;;5056192;28;20078;-64
2023/03/02 05:23:58;;;;;;;3.72;1.10;;;9.80;60.00;;;;;;5057115;28;20148;-65
2023/03/02 05:26:24;;;;;;;4.63;1.10;;;9.80;60.50;;;;;;5057233;28;20620;-63
2023/03/02 05:28:50;;;;;;;;;;;9.90;59.70;;;;;;5056703;28;20068;-64
2023/03/02 05:31:33;;;;;;;7.05;1.40;;;9.90;59.60;;;;;;5063036;28;20385;-62
2023/03/02 05:34:00;;;;;;;4.25;1.35;;;9.90;59.70;;;;;;5057605;28;20550;-63
2023/03/02 05:36:27;;;;;;;7.07;1.52;;;9.90;59.80;;;;;;5055880;28;20555;-63
2023/03/02 05:38:53;;;;;;;5.13;1.63;;;10.00;59.80;;;;;;5056582;28;20093;-65
2023/03/02 05:41:19;;;;;;;;;;;10.00;59.70;;;;;;5056974;28;20095;-62
2023/03/02 05:43:46;;;;;;;18.08;7.40;;;10.00;59.40;;;;;;5062633;28;20602;-62
2023/03/02 05:46:12;;;;;;;6.30;1.15;;;10.00;58.90;;;;;;5056000;28;20073;-64
2023/03/02 05:48:38;;;;;;;;;;;10.10;59.00;;;;;;5060338;28;20103;-65
2023/03/02 05:51:05;;;;;;;4.80;1.30;;;10.10;58.50;;;;;;5057358;28;20329;-66
2023/03/02 05:53:31;;;;;;;5.93;1.77;;;10.10;58.50;;;;;;5057253;28;20085;-65
2023/03/02 05:55:58;;;;;;;;;;;10.10;58.40;;;;;;5055585;28;20124;-63
2023/03/02 05:58:24;;;;;;;11.95;4.85;;;10.10;58.40;;;;;;5058361;28;20011;-63
2023/03/02 06:00:50;;;;;;;;;;;10.10;58.50;;;;;;5057324;28;20178;-60
2023/03/02 06:03:17;;;;;;;9.85;1.60;;;10.10;58.50;;;;;;5057333;28;20457;-61
2023/03/02 06:05:44;;;;;;;3.80;1.60;;;10.10;58.40;;;;;;5062478;28;20073;-60
2023/03/02 06:08:10;;;;;;;6.20;2.00;;;10.10;58.20;;;;;;5054891;28;20093;-61
2023/03/02 06:10:36;;;;;;;;;;;10.10;58.30;;;;;;5054912;28;20062;-60
2023/03/02 06:13:03;;;;;;;4.80;1.50;;;10.00;58.20;;;;;;5054145;28;19957;-60
2023/03/02 06:15:29;;;;;;;2.65;1.35;;;10.10;58.10;;;;;;5062635;28;20086;-64
2023/03/02 06:17:56;;;;;;;;;;;10.10;58.00;;;;;;5060021;28;20078;-65
2023/03/02 06:20:22;;;;;;;6.23;1.20;;;10.10;57.60;;;;;;5037140;28;20067;-61
2023/03/02 06:22:49;;;;;;;4.05;1.30;;;10.10;57.60;;;;;;5055966;28;20089;-62
2023/03/02 06:25:17;;;;;;;;;;;10.10;57.40;;;;;;5054729;28;20069;-65
2023/03/02 06:27:44;;;;;;;2.15;0.90;;;10.20;57.20;;;;;;5054582;28;19965;-64
2023/03/02 06:30:15;;;;;;;5.70;0.82;;;10.10;57.20;;;;;;5055451;28;20080;-59
2023/03/02 06:32:42;;;;;;;4.68;0.88;;;10.10;57.30;;;;;;5053563;28;20074;-61
2023/03/02 06:35:10;;;;;;;5.57;1.20;;;10.10;57.30;;;;;;5056005;28;20077;-62
2023/03/02 06:37:36;;;;;;;5.38;1.20;;;10.00;57.40;;;;;;5055298;28;20078;-61
2023/03/02 06:40:10;;;;;;;4.97;1.42;;;10.00;57.70;;;;;;5058385;28;20131;-61
2023/03/02 06:42:38;;;;;;;4.65;1.15;;;10.10;57.70;;;;;;5055837;28;20186;-64
2023/03/02 06:45:05;;;;;;;4.40;0.90;;;10.10;57.90;;;;;;5055784;28;20084;-64
2023/03/02 06:47:32;;;;;;;2.70;1.05;;;10.00;57.90;;;;;;5055899;28;20091;-65
2023/03/02 06:49:59;;;;;;;5.72;1.10;;;10.00;58.00;;;;;;5055755;28;20091;-60
2023/03/02 06:52:29;;;;;;;3.92;1.15;;;10.00;58.10;;;;;;5058448;28;20079;-61
2023/03/02 06:54:55;;;;;;;4.20;1.02;;;9.90;57.90;;;;;;5053635;28;20093;-63
2023/03/02 06:57:21;;;;;;;2.20;1.00;;;9.90;58.10;;;;;;5058739;28;20160;-63
2023/03/02 06:59:48;;;;;;;5.25;1.08;;;10.00;58.40;;;;;;5064668;28;20081;-63
2023/03/02 07:02:14;;;;;;;;;;;9.90;58.50;;;;;;5054673;28;20095;-60
2023/03/02 07:04:40;;;;;;;2.17;1.00;;;9.90;58.70;;;;;;5052495;28;20353;-62
2023/03/02 07:07:06;;;;;;;;;;;9.80;59.10;;;;;;5062050;28;20539;-62
2023/03/02 07:09:33;;;;;;;3.22;1.20;;;9.70;59.30;;;;;;5062888;28;20063;-64
2023/03/02 07:12:00;;;;;;;5.45;1.00;;;9.70;59.30;;;;;;5063250;28;20073;-60
2023/03/02 07:14:26;;;;;;;2.97;1.20;;;9.70;59.50;;;;;;5063780;28;20998;-65
2023/03/02 07:16:52;;;;;;;;;;;9.60;59.40;;;;;;5063532;28;20082;-64
2023/03/02 07:19:19;;;;;;;4.65;1.00;;;9.60;59.10;;;;;;5063337;28;19957;-62
2023/03/02 07:21:45;;;;;;;4.35;1.17;;;9.70;59.30;;;;;;5062534;28;20542;-60
2023/03/02 07:24:11;;;;;;;;;;;9.60;59.40;;;;;;5063911;28;20081;-62
2023/03/02 07:26:37;;;;;;;3.55;1.08;;;9.60;59.60;;;;;;5063404;28;19977;-60
2023/03/02 07:29:03;;;;;;;;;;;9.40;59.90;;;;;;5065249;28;20073;-65
2023/03/02 07:31:30;;;;;;;3.05;1.25;;;9.30;60.30;;;;;;5061440;28;19961;-65
2023/03/02 07:33:56;;;;;;;;;;;9.40;60.60;;;;;;5063853;28;20076;-62
2023/03/02 07:36:22;;;;;;;2.38;1.10;;;9.40;60.50;;;;;;5071823;22;19989;-65
2023/03/02 07:38:49;;;;;;;6.35;1.00;;;9.30;60.50;;;;;;5046511;28;20074;-63
2023/03/02 07:41:15;;;;;;;;;;;9.20;60.60;;;;;;5049449;28;20073;-63
2023/03/02 07:43:42;;;;;;;3.47;1.00;;;9.20;61.30;;;;;;5049480;28;19991;-65
2023/03/02 07:46:08;;;;;;;4.43;1.20;;;9.20;60.90;;;;;;5049896;28;20413;-66
2023/03/02 07:48:34;;;;;;;;;;;9.20;60.90;;;;;;5048605;28;20069;-66
2023/03/02 07:51:02;;;;;;;2.55;1.15;;;9.10;60.80;;;;;;5048992;28;19979;-64
2023/03/02 07:53:29;;;;;;;4.85;1.30;;;9.20;61.00;;;;;;5048236;28;20084;-63
2023/03/02 07:55:55;;;;;;;6.28;1.33;;;9.20;60.50;;;;;;5048033;28;20093;-63
2023/03/02 07:58:23;;;;;;;;;;;9.20;60.40;;;;;;5049930;28;20544;-65
2023/03/02 08:00:49;;;;;;;3.70;1.13;;;9.30;59.90;;;;;;5048501;28;19965;-63
2023/03/02 08:03:16;;;;;;;3.40;1.10;;;9.30;59.70;;;;;;5052810;28;20480;-64
2023/03/02 08:05:42;;;;;;;;;;;9.20;59.70;;;;;;5053373;28;20161;-64
2023/03/02 08:08:08;;;;;;;4.22;1.50;;;9.20;59.90;;;;;;5052591;28;20043;-62
2023/03/02 08:10:34;;;;;;;;;;;9.30;60.20;;;;;;5053220;28;20155;-65
2023/03/02 08:13:01;;;;;;;4.60;2.00;;;9.30;60.10;;;;;;5052200;28;19964;-65
2023/03/02 08:15:27;;;;;;;;;;;9.30;60.30;;;;;;5052627;28;20436;-65
2023/03/02 08:17:53;;;;;;;5.45;1.63;;;9.40;60.40;;;;;;5051881;28;19957;-62
2023/03/02 08:20:19;;;;;;;;;;;9.40;63.30;;;;;;5052760;28;20066;-63
2023/03/02 08:22:46;;;;;;;14.00;2.10;;;9.40;69.10;;;;;;5051879;28;20336;-65
2023/03/02 08:25:12;;;;;;;;;;;9.40;60.50;;;;;;5053306;28;20134;-65
2023/03/02 08:27:39;;;;;;;7.57;1.85;;;9.40;60.40;;;;;;5052511;28;19967;-65
2023/03/02 08:30:07;;;;;;;6.53;1.75;;;9.50;60.70;;;;;;5051415;28;20100;-63
2023/03/02 08:32:34;;;;;;;5.43;1.30;;;9.40;60.40;;;;;;5050475;28;20533;-64
2023/03/02 08:35:00;;;;;;;9.68;1.27;;;9.40;60.40;;;;;;5052580;28;20411;-61
2023/03/02 08:37:27;;;;;;;4.15;1.13;;;9.40;60.30;;;;;;5052323;28;20089;-64
2023/03/02 08:39:53;;;;;;;4.53;1.42;;;9.50;60.00;;;;;;5048195;28;20093;-60
2023/03/02 08:42:19;;;;;;;;;;;9.50;59.70;;;;;;5052480;28;20143;-63
2023/03/02 08:44:46;;;;;;;7.35;1.40;;;9.50;59.50;;;;;;5052421;28;19965;-60
2023/03/02 08:47:12;;;;;;;;;;;9.60;59.40;;;;;;5052472;28;20066;-65
2023/03/02 08:49:38;;;;;;;2.78;1.00;;;9.60;59.40;;;;;;5052270;28;19957;-62
2023/03/02 08:52:04;;;;;;;;;;;9.50;59.20;;;;;;5052404;28;20121;-63
2023/03/02 08:54:33;;;;;;;5.35;1.00;;;9.60;59.40;;;;;;5051738;28;20051;-67
2023/03/02 08:57:01;;;;;;;4.55;1.33;;;9.60;59.50;;;;;;5052730;28;20164;-64
2023/03/02 08:59:27;;;;;;;6.63;1.30;;;9.60;59.10;;;;;;5051519;28;20112;-65
2023/03/02 09:01:53;;;;;;;3.35;1.08;;;9.70;59.10;;;;;;5050935;28;20093;-65
2023/03/02 09:04:20;;;;;;;5.88;1.45;;;9.70;59.00;;;;;;5051129;28;20104;-65
2023/03/02 09:06:46;;;;;;;;;;;9.70;58.90;;;;;;5052115;28;20081;-65
2023/03/02 09:09:13;;;;;;;4.93;1.17;;;9.70;58.80;;;;;;5051153;28;20012;-64
2023/03/02 09:11:41;;;;;;;4.97;1.10;;;9.70;58.90;;;;;;5051056;28;20097;-65
2023/03/02 09:14:07;;;;;;;2.65;1.10;;;9.70;58.70;;;;;;5051347;28;20147;-61
2023/03/02 09:16:34;;;;;;;3.38;0.75;;;9.80;58.30;;;;;;5050633;28;20117;-61
2023/03/02 09:19:00;;;;;;;;;;;9.80;58.10;;;;;;5052272;28;20536;-63
2023/03/02 09:21:26;;;;;;;4.65;1.05;;;9.80;57.60;;;;;;5051204;28;20140;-60
2023/03/02 09:23:54;;;;;;;;;;;9.80;57.40;;;;;;5051176;28;20082;-58
2023/03/02 09:26:21;;;;;;;6.63;1.08;;;9.80;57.40;;;;;;5050965;28;19996;-63
2023/03/02 09:28:48;;;;;;;3.95;0.90;;;9.90;56.90;;;;;;5050590;28;20088;-60
2023/03/02 09:31:14;;;;;;;3.20;0.90;;;10.00;56.90;;;;;;5049919;28;20535;-59
2023/03/02 09:33:41;;;;;;;;;;;10.00;56.80;;;;;;5051587;28;20081;-63
2023/03/02 09:36:10;;;;;;;2.53;0.70;;;10.00;56.90;;;;;;5050873;28;19989;-62
2023/03/02 09:38:36;;;;;;;3.53;1.13;;;10.00;57.00;;;;;;5051139;28;20160;-61
2023/03/02 09:41:18;;;;;;;1.60;0.90;;;10.10;56.90;;;;;;5048424;28;20081;-61
2023/03/02 09:44:09;;;;;;;6.80;1.15;;;10.10;56.60;;;;;;5049910;28;20164;-60
2023/03/02 09:46:53;;;;;;;4.43;1.08;;;10.00;56.50;;;;;;5050914;28;20080;-61
2023/03/02 09:49:28;;;;;;;3.15;0.80;;;10.00;56.40;;;;;;5050951;28;20542;-58
2023/03/02 09:52:27;;;;;;;2.30;0.70;;;10.10;56.40;;;;;;5050661;28;20187;-62
2023/03/02 09:54:55;;;;;;;2.70;0.85;;;10.10;56.40;;;;;;5050325;28;20092;-65
2023/03/02 09:57:25;;;;;;;2.55;0.90;;;10.10;56.40;;;;;;5050366;28;20080;-60
2023/03/02 09:59:58;;;;;;;1.88;0.77;;;10.00;56.30;;;;;;5051144;28;20119;-66
2023/03/02 10:02:39;;;;;;;4.13;0.90;;;10.10;56.30;;;;;;5050555;28;20557;-59
2023/03/02 10:05:12;;;;;;;2.92;0.88;;;10.10;56.30;;;;;;5050341;28;20081;-60
2023/03/02 10:07:39;;;;;;;4.35;1.13;;;10.10;56.20;;;;;;5049775;28;20085;-63
2023/03/02 10:10:45;;;;;;;3.75;1.05;;;10.20;56.20;;;;;;5050205;28;20070;-57
2023/03/02 10:13:41;;;;;;;3.42;1.10;;;10.20;56.20;;;;;;5049209;28;20601;-62
2023/03/02 10:16:22;;;;;;;3.40;0.80;;;10.20;56.10;;;;;;5048909;28;20065;-61
2023/03/02 10:19:16;;;;;;;4.15;1.02;;;10.20;56.00;;;;;;5049410;28;20093;-60
2023/03/02 10:21:46;;;;;;;3.97;0.90;;;10.20;56.10;;;;;;5049327;28;20089;-64
2023/03/02 10:24:25;;;;;;;1.88;0.90;;;10.20;56.10;;;;;;5049260;28;20077;-63
2023/03/02 10:26:58;;;;;;;4.05;0.80;;;10.20;55.90;;;;;;5049302;28;20143;-65
2023/03/02 10:29:42;;;;;;;2.72;1.10;;;10.30;55.80;;;;;;5048852;28;20060;-62
2023/03/02 10:32:41;;;;;;;4.03;1.05;;;10.30;55.40;;;;;;5049441;28;20123;-60
2023/03/02 10:35:15;;;;;;;5.55;1.00;;;10.30;55.30;;;;;;5049328;28;20073;-65
2023/03/02 10:37:42;;;;;;;5.75;0.98;;;10.30;55.30;;;;;;5046730;28;20088;-64
2023/03/02 10:40:37;;;;;;;;;;;10.30;54.90;;;;;;5050384;28;20083;-63
2023/03/02 10:43:05;;;;;;;3.03;1.05;;;10.30;54.70;;;;;;5021627;28;19974;-60
2023/03/02 10:45:32;;;;;;;2.70;1.08;;;10.30;54.50;;;;;;5025095;28;20128;-63
2023/03/02 10:48:04;;;;;;;5.60;1.20;;;10.30;54.50;;;;;;5023547;28;20070;-63
2023/03/02 10:50:31;;;;;;;4.07;1.10;;;10.40;54.00;;;;;;5023514;28;20120;-64
2023/03/02 10:52:58;;;;;;;4.07;0.80;;;10.40;53.90;;;;;;5023652;28;20082;-64
2023/03/02 10:55:24;;;;;;;3.08;0.73;;;10.40;54.10;;;;;;5024892;28;20084;-65
2023/03/02 10:58:20;;;;;;;5.50;1.00;;;10.50;53.10;;;;;;5024599;28;20611;-64
2023/03/02 11:01:04;;;;;;;5.60;1.05;;;10.50;52.80;;;;;;5021725;28;20089;-63
2023/03/02 11:03:32;;;;;;;3.05;0.80;;;10.50;52.20;;;;;;5024298;28;20228;-61
2023/03/02 11:06:16;;;;;;;2.72;0.68;;;10.60;52.10;;;;;;5023804;28;20081;-58
2023/03/02 11:08:42;;;;;;;3.63;0.63;;;10.60;52.00;;;;;;5022881;28;20502;-64
2023/03/02 11:11:21;;;;;;;;;;;10.60;51.90;;;;;;5023096;28;20094;-62
2023/03/02 11:13:48;;;;;;;1.67;0.70;;;10.60;51.60;;;;;;5024483;28;19965;-64
2023/03/02 11:16:17;;;;;;;3.10;0.73;;;10.60;51.70;;;;;;5024308;28;20078;-59
2023/03/02 11:19:13;;;;;;;6.70;0.93;;;10.60;51.70;;;;;;5030062;28;20098;-60
2023/03/02 11:22:05;;;;;;;3.05;1.00;;;10.70;51.50;;;;;;5045651;28;20105;-64
2023/03/02 11:24:39;;;;;;;3.30;0.60;;;10.70;51.50;;;;;;5048554;28;20158;-61
2023/03/02 11:27:13;;;;;;;4.43;1.00;;;10.70;51.30;;;;;;5048976;28;20164;-63
2023/03/02 11:29:39;;;;;;;2.50;0.68;;;10.70;51.20;;;;;;5048270;28;20085;-61
2023/03/02 11:32:11;;;;;;;;;;;10.70;51.20;;;;;;5049875;28;20080;-64
2023/03/02 11:34:53;;;;;;;6.25;0.80;;;10.60;51.30;;;;;;5048709;28;20333;-64
2023/03/02 11:37:47;;;;;;;6.75;0.90;;;10.70;51.50;;;;;;5047720;28;20176;-63
2023/03/02 11:40:24;;;;;;;5.60;1.20;;;10.60;51.50;;;;;;5049310;28;20539;-60
2023/03/02 11:42:53;;;;;;;2.72;0.80;;;10.60;51.70;;;;;;5049177;28;20096;-66
2023/03/02 11:45:27;;;;;;;1.50;0.65;;;10.60;51.70;;;;;;5049516;28;20521;-63
2023/03/02 11:48:08;;;;;;;2.92;0.90;;;10.60;51.90;;;;;;5047118;28;20073;-62
2023/03/02 11:50:40;;;;;;;1.50;0.50;;;10.60;51.80;;;;;;5047869;28;20093;-60
2023/03/02 11:53:13;;;;;;;2.10;0.63;;;10.60;52.10;;;;;;5047656;28;20151;-66
2023/03/02 11:55:47;;;;;;;1.50;0.60;;;10.60;52.10;;;;;;5048268;28;20446;-59
2023/03/02 11:58:23;;;;;;;4.57;0.60;;;10.50;51.70;;;;;;5064118;28;20169;-62
2023/03/02 12:00:51;;;;;;;2.00;0.60;;;10.60;52.20;;;;;;5048634;28;20164;-62
2023/03/02 12:03:17;;;;;;;0.95;0.50;;;10.60;51.90;;;;;;5048659;28;20096;-60
2023/03/02 12:05:45;;;;;;;;;;;10.50;52.60;;;;;;5049285;28;20135;-63
2023/03/02 12:08:14;;;;;;;;;;;10.60;52.10;;;;;;5048242;28;20024;-62
2023/03/02 12:10:54;;;;;;;2.42;0.73;;;10.60;52.30;;;;;;5047368;28;19964;-61
2023/03/02 12:13:29;;;;;;;7.18;0.82;;;10.50;52.20;;;;;;5048535;28;20077;-59
2023/03/02 12:15:56;;;;;;;4.55;0.93;;;10.50;52.30;;;;;;5048962;28;20093;-64
2023/03/02 12:18:23;;;;;;;0.90;0.57;;;10.50;52.50;;;;;;5048531;28;20120;-65
2023/03/02 12:21:05;;;;;;;2.47;0.60;;;10.50;52.40;;;;;;5048407;28;20165;-64
2023/03/02 12:23:57;;;;;;;1.38;0.73;;;10.50;52.50;;;;;;5047600;28;20361;-59
2023/03/02 12:26:25;;;;;;;4.20;0.82;;;10.40;52.50;;;;;;5048302;28;20441;-64
2023/03/02 12:29:23;;;;;;;1.92;0.70;;;10.50;52.50;;;;;;5048177;28;20438;-61
2023/03/02 12:31:52;;;;;;;6.18;0.73;;;10.50;52.50;;;;;;5048587;28;20119;-66
2023/03/02 12:34:42;;;;;;;1.58;0.68;;;10.40;52.40;;;;;;5047865;28;20074;-59
2023/03/02 12:37:23;;;;;;;4.53;0.57;;;10.40;52.70;;;;;;5047412;28;20125;-61
2023/03/02 12:40:10;;;;;;;3.15;0.80;;;10.40;52.80;;;;;;5047696;28;20073;-66
2023/03/02 12:42:36;;;;;;;;;;;10.30;52.90;;;;;;5047563;28;20112;-65
2023/03/02 12:45:03;;;;;;;5.07;0.80;;;10.30;53.10;;;;;;5048695;28;20463;-62
2023/03/02 12:47:30;;;;;;;2.33;0.70;;;10.30;53.00;;;;;;5049533;28;20103;-63
2023/03/02 12:50:01;;;;;;;4.38;0.70;;;10.20;53.10;;;;;;5051925;28;20548;-64
2023/03/02 12:52:33;;;;;;;6.25;0.80;;;10.20;53.70;;;;;;5052335;28;20070;-62
2023/03/02 12:55:08;;;;;;;2.30;0.60;;;10.10;53.20;;;;;;5051869;28;20076;-62
2023/03/02 12:57:46;;;;;;;2.08;0.70;;;10.10;53.20;;;;;;5051838;28;20155;-64
2023/03/02 13:00:18;;;;;;;4.25;1.00;;;10.00;53.10;;;;;;5051829;28;20081;-62
2023/03/02 13:02:49;;;;;;;2.35;0.80;;;10.00;53.20;;;;;;5051425;28;20093;-64
2023/03/02 13:05:27;;;;;;;3.83;0.70;;;10.00;53.30;;;;;;5051530;28;20156;-61
2023/03/02 13:08:07;;;;;;;2.33;0.70;;;10.00;53.70;;;;;;5051697;28;20180;-60
2023/03/02 13:10:40;;;;;;;4.30;1.17;;;10.00;53.50;;;;;;5051761;28;20097;-61
2023/03/02 13:13:35;;;;;;;2.38;0.82;;;10.00;53.40;;;;;;5051281;28;20130;-63
2023/03/02 13:16:05;;;;;;;2.38;0.85;;;10.00;53.60;;;;;;5051152;28;20127;-62
2023/03/02 13:18:35;;;;;;;5.38;0.70;;;9.90;53.70;;;;;;5047442;28;20085;-62
2023/03/02 13:21:03;;;;;;;3.67;1.13;;;9.90;53.70;;;;;;5050886;28;20100;-61